Ana Sayfa
METAR-TAF:

METAR-TAF

Havaalanları :

Iğdır Şehit Bülent Aydın Havalimanı

Iğdır, Türkiye

Enlem: 39-58-36N, Boylam: 43-52-36E, yükseklik: 945 m

Güncel hava durumu gözlemi

Rapor saat 12:50 UTC de 3 saat ve 15 dakika önce yapıldı.
Rüzgar batı/kuzeybatıdan 14 kt
Sıcaklık 16°C
Nem 68%
Basınç 1019 hPa
Görüş mesafesi 10 km veya daha fazla
3500 ft yükseklikte parçalı bulutlu
7000 ft yükseklikte parçalı çok bulutlu

METAR: LTCT 231250Z 30014KT 9999 SCT035 BKN070 16/10 Q1019

Saat: 19:05 (16:05 UTC)

Tahmin

Rapor saat 13:40 UTC de 2 saat ve 25 dakika önce yapıldı.
Ayın 23'si saat 15 UTC'den ayın 23'si saat 24 UTC'ye kadar geçerli Tahmin
Rüzgar değişken yönden 2 kt
Görüş mesafesi 10 km veya daha fazla
3500 ft yükseklikte parçalı bulutlu
7000 ft yükseklikte parçalı çok bulutlu

TAF: LTCT 231340Z 2315/2324 VRB02KT 9999 SCT035 BKN070

4.000'den fazla havaalanı için hava durumu gözlemleri ve tahminleri (METAR ve TAF raporları).

Kullanılabilir istasyonlar harita üzerinde sarı ve kırmızı noktalarla gösterilir.

İstasyonun adını görmek için fareyi noktanın üzerinde gezdirin.

Sonrasında hava gözlem ve tahminlerini görmek için tıklayın.

Haritayı değiştirmek için: yaklaştırmak için siyah artı işaretli yeşil düğmeye ve uzaklaştırmak için de eksi işaretli düğmeye hızla tıklayın; bitişik haritalar için yeşil okları kullanın.


METAR-TAF: